createdAt,value
2019-05-05T00:06:44.581Z,23.1
2019-05-05T00:16:44.474Z,23
2019-05-05T00:26:42.709Z,22.9
2019-05-05T00:36:42.013Z,23
2019-05-05T00:46:41.268Z,22.9
2019-05-05T00:56:40.491Z,22.9
2019-05-05T01:06:39.707Z,22.9
2019-05-05T01:16:38.922Z,22.9
2019-05-05T01:26:38.135Z,22.9
2019-05-05T01:40:04.928Z,22.9
2019-05-05T01:50:14.918Z,22.8
2019-05-05T02:00:01.503Z,22.8
2019-05-05T02:10:00.712Z,22.8
2019-05-05T02:19:59.927Z,22.8
2019-05-05T02:29:59.150Z,22.8
2019-05-05T02:45:41.082Z,22.8
2019-05-05T02:55:40.305Z,22.8
2019-05-05T03:05:39.518Z,22.7
2019-05-05T03:21:07.411Z,22.7
2019-05-05T03:31:05.559Z,22.6
2019-05-05T03:41:04.773Z,22.6
2019-05-05T03:51:15.294Z,22.6
2019-05-05T04:01:04.245Z,22.7
2019-05-05T04:11:03.901Z,22.6
2019-05-05T04:21:03.818Z,22.6
2019-05-05T04:31:01.013Z,22.6
2019-05-05T04:41:00.324Z,22.6
2019-05-05T04:50:59.625Z,22.6
2019-05-05T05:00:58.925Z,22.6
2019-05-05T05:16:28.337Z,22.6
2019-05-05T05:26:27.556Z,22.6
2019-05-05T05:36:26.771Z,22.6
2019-05-05T05:46:25.983Z,22.6
2019-05-05T05:56:25.200Z,22.6
2019-05-05T06:06:24.430Z,22.5
2019-05-05T06:16:23.733Z,22.4
2019-05-05T06:26:23.997Z,22.4
2019-05-05T06:36:23.416Z,22.5
2019-05-05T06:46:23.553Z,22.5
2019-05-05T06:56:20.942Z,22.6
2019-05-05T07:06:20.194Z,22.6
2019-05-05T07:16:19.420Z,22.6
2019-05-05T07:26:18.636Z,22.8
2019-05-05T07:36:17.851Z,22.9
2019-05-05T07:46:17.063Z,23
2019-05-05T07:56:16.281Z,23.1
2019-05-05T08:06:15.499Z,23.1
2019-05-05T08:16:14.718Z,23.1
2019-05-05T08:26:13.934Z,23.2
2019-05-05T08:36:14.661Z,23.4
2019-05-05T08:46:14.299Z,22.3
2019-05-05T08:56:11.602Z,22.4
2019-05-05T09:06:10.815Z,22.1
2019-05-05T09:16:10.025Z,22.2
2019-05-05T09:26:09.242Z,22.2
2019-05-05T09:36:08.465Z,22.4
2019-05-05T09:46:07.677Z,22.7
2019-05-05T09:56:06.895Z,23.3
2019-05-05T10:07:54.458Z,23.2
2019-05-05T10:17:54.144Z,23.4
2019-05-05T10:27:53.917Z,23.1
2019-05-05T10:37:51.284Z,23.1
2019-05-05T10:47:50.562Z,23.4
2019-05-05T10:57:49.739Z,23.4
2019-05-05T11:07:49.051Z,23.6
2019-05-05T11:17:48.359Z,23.6
2019-05-05T11:29:31.680Z,23.5
2019-05-05T11:39:30.904Z,23.6
2019-05-05T11:49:30.126Z,23.4
2019-05-05T11:59:29.335Z,23.5
2019-05-05T12:09:28.552Z,23.6
2019-05-05T12:19:27.795Z,23.7
2019-05-05T12:29:27.100Z,23.5
2019-05-05T12:39:26.394Z,23.6
2019-05-05T12:49:25.704Z,23.5
2019-05-05T12:59:25.103Z,23.6
2019-05-05T13:09:24.520Z,23.5
2019-05-05T13:19:24.182Z,23.6
2019-05-05T13:29:24.568Z,23.6
2019-05-05T13:39:22.058Z,23.5
2019-05-05T13:49:21.231Z,23.4
2019-05-05T13:59:20.440Z,23.4
2019-05-05T14:09:19.660Z,23.3
2019-05-05T14:19:18.880Z,23.3
2019-05-05T14:29:18.151Z,23.2
2019-05-05T14:39:17.322Z,23.2
2019-05-05T14:49:16.541Z,23.2
2019-05-05T14:59:15.770Z,23.2
2019-05-05T15:09:14.982Z,23.2
2019-05-05T15:19:14.563Z,23.2
2019-05-05T15:33:53.411Z,23.3
2019-05-05T15:43:50.936Z,23.3
2019-05-05T15:53:50.150Z,23.3
2019-05-05T16:03:49.420Z,23.3
2019-05-05T16:13:48.585Z,23.3
2019-05-05T16:23:47.875Z,23.4
2019-05-05T16:33:48.657Z,23.3
2019-05-05T16:43:46.428Z,23.3
2019-05-05T16:53:45.740Z,23.3
2019-05-05T17:03:45.716Z,23.2
2019-05-05T17:13:44.397Z,23.3
2019-05-05T17:23:43.599Z,23.3
2019-05-05T17:38:54.273Z,23.3
2019-05-05T17:48:53.812Z,23.3
2019-05-05T17:58:53.782Z,23.3
2019-05-05T18:11:44.063Z,23.3
2019-05-05T18:21:41.152Z,23.3
2019-05-05T18:31:40.426Z,23.3
2019-05-05T18:41:39.638Z,23.3
2019-05-05T18:51:38.806Z,23.4
2019-05-05T19:01:38.042Z,23.3
2019-05-05T19:11:37.399Z,23.3
2019-05-05T19:21:36.653Z,23.4
2019-05-05T19:31:36.542Z,23.4
2019-05-05T19:41:35.278Z,23.4
2019-05-05T19:51:36.619Z,23.4
2019-05-05T20:01:37.495Z,23.4
2019-05-05T20:11:33.986Z,23.4
2019-05-05T20:21:34.436Z,23.4
2019-05-05T20:31:31.496Z,23.1
2019-05-05T20:41:30.709Z,23.1
2019-05-05T20:51:29.931Z,23.1
2019-05-05T21:01:29.153Z,23.1
2019-05-05T21:11:28.369Z,23
2019-05-05T21:21:27.588Z,23.1
2019-05-05T21:31:26.812Z,23.1
2019-05-05T21:41:26.034Z,23
2019-05-05T21:51:25.251Z,23.1
2019-05-05T22:09:50.084Z,23
2019-05-05T22:19:49.360Z,23
2019-05-05T22:29:48.527Z,23
2019-05-05T22:39:47.741Z,22.9
2019-05-05T22:49:46.959Z,22.9
2019-05-05T22:59:46.183Z,22.9
2019-05-05T23:09:45.489Z,22.9
2019-05-05T23:19:44.789Z,22.9
2019-05-05T23:29:44.596Z,22.9
2019-05-05T23:39:43.397Z,22.9
2019-05-05T23:49:43.986Z,22.9
2019-05-05T23:59:43.764Z,22.9
